N43171 LEOJ-LESO
Flight info
| Callsign | N43171 |
|---|---|
| Flight time | N/A |
| Altitude | 10000 |
| Route | DCT LESO |
| Aircraft | TBM9/L-VGDW/C |
Departure
| Time | N/A |
|---|---|
| Airport | LEOJ |
Arrival
| Time | 2026-04-27 18:37 |
|---|---|
| Airport | San Sebastián Airport (LESO) |
| Time | Latitude | Longitude | Altitude | Speed | Heading |
|---|---|---|---|---|---|
| 2026-04-27 17:48 | 42.34834 | 0.18564 | 1749 ft | 0 kts | 70° |
| 2026-04-27 17:54 | 42.34834 | 0.18563 | 1752 ft | 0 kts | 70° |
| 2026-04-27 18:00 | 42.34827 | 0.18588 | 1744 ft | 9 kts | 131° |
| 2026-04-27 18:00 | 42.34776 | 0.18642 | 1747 ft | 7 kts | 147° |
| 2026-04-27 18:01 | 42.34752 | 0.18662 | 1745 ft | 0 kts | 149° |
| 2026-04-27 18:01 | 42.34750 | 0.18664 | 1745 ft | 1 kts | 154° |
| 2026-04-27 18:02 | 42.34742 | 0.18669 | 1746 ft | 6 kts | 155° |
| 2026-04-27 18:02 | 42.34699 | 0.18686 | 1744 ft | 4 kts | 161° |
| 2026-04-27 18:02 | 42.34676 | 0.18700 | 1741 ft | 6 kts | 153° |
| 2026-04-27 18:03 | 42.34646 | 0.18720 | 1744 ft | 3 kts | 154° |
| 2026-04-27 18:03 | 42.34619 | 0.18739 | 1742 ft | 8 kts | 151° |
| 2026-04-27 18:03 | 42.34618 | 0.18763 | 1742 ft | 2 kts | 330° |
| 2026-04-27 18:03 | 42.34620 | 0.18762 | 1742 ft | 0 kts | 329° |
| 2026-04-27 18:04 | 42.34619 | 0.18762 | 1742 ft | 0 kts | 329° |
| 2026-04-27 18:06 | 42.34729 | 0.18707 | 1744 ft | 43 kts | 340° |
| 2026-04-27 18:06 | 42.35174 | 0.18420 | 1803 ft | 94 kts | 333° |
| 2026-04-27 18:06 | 42.35844 | 0.17998 | 2125 ft | 115 kts | 336° |
| 2026-04-27 18:06 | 42.36597 | 0.17585 | 2706 ft | 116 kts | 341° |
| 2026-04-27 18:07 | 42.37408 | 0.17146 | 3138 ft | 131 kts | 330° |
| 2026-04-27 18:07 | 42.38108 | 0.16332 | 3562 ft | 140 kts | 309° |
| 2026-04-27 18:07 | 42.38595 | 0.15132 | 3953 ft | 150 kts | 290° |
| 2026-04-27 18:07 | 42.38898 | 0.13791 | 4469 ft | 153 kts | 286° |
| 2026-04-27 18:08 | 42.39151 | 0.12344 | 4918 ft | 162 kts | 285° |
| 2026-04-27 18:08 | 42.39480 | 0.10818 | 5287 ft | 175 kts | 288° |
| 2026-04-27 18:08 | 42.39646 | 0.09140 | 5465 ft | 190 kts | 273° |
| 2026-04-27 18:08 | 42.39696 | 0.07304 | 5696 ft | 198 kts | 269° |
| 2026-04-27 18:09 | 42.39674 | 0.05432 | 6020 ft | 202 kts | 269° |
| 2026-04-27 18:09 | 42.39651 | 0.03489 | 6106 ft | 214 kts | 266° |
| 2026-04-27 18:09 | 42.39511 | 0.01430 | 6189 ft | 228 kts | 262° |
| 2026-04-27 18:09 | 42.39334 | -0.00727 | 6263 ft | 232 kts | 265° |
| 2026-04-27 18:10 | 42.39333 | -0.02921 | 6194 ft | 235 kts | 271° |
| 2026-04-27 18:10 | 42.39421 | -0.05122 | 6319 ft | 230 kts | 273° |
| 2026-04-27 18:10 | 42.39536 | -0.07266 | 6444 ft | 227 kts | 274° |
| 2026-04-27 18:10 | 42.39749 | -0.09230 | 6347 ft | 191 kts | 284° |
| 2026-04-27 18:11 | 42.40164 | -0.10821 | 6216 ft | 170 kts | 290° |
| 2026-04-27 18:11 | 42.40723 | -0.12206 | 6181 ft | 166 kts | 302° |
| 2026-04-27 18:11 | 42.41332 | -0.13521 | 6185 ft | 164 kts | 303° |
| 2026-04-27 18:11 | 42.41946 | -0.14803 | 6162 ft | 164 kts | 302° |
| 2026-04-27 18:12 | 42.42551 | -0.16100 | 6177 ft | 164 kts | 301° |
| 2026-04-27 18:12 | 42.43162 | -0.17417 | 6213 ft | 168 kts | 303° |
| 2026-04-27 18:12 | 42.43874 | -0.18867 | 6330 ft | 198 kts | 304° |
| 2026-04-27 18:12 | 42.44709 | -0.20452 | 6571 ft | 214 kts | 307° |
| 2026-04-27 18:13 | 42.45589 | -0.22142 | 6791 ft | 226 kts | 303° |
| 2026-04-27 18:13 | 42.46463 | -0.23956 | 6968 ft | 234 kts | 302° |
| 2026-04-27 18:13 | 42.47342 | -0.25737 | 7501 ft | 223 kts | 304° |
| 2026-04-27 18:13 | 42.48193 | -0.27447 | 8060 ft | 218 kts | 301° |
| 2026-04-27 18:14 | 42.48973 | -0.29248 | 8318 ft | 229 kts | 299° |
| 2026-04-27 18:14 | 42.49804 | -0.31192 | 8323 ft | 244 kts | 298° |
| 2026-04-27 18:14 | 42.50643 | -0.33238 | 8261 ft | 256 kts | 298° |
| 2026-04-27 18:14 | 42.51517 | -0.35398 | 8124 ft | 265 kts | 298° |
| 2026-04-27 18:15 | 42.52417 | -0.37594 | 8079 ft | 266 kts | 298° |
| 2026-04-27 18:15 | 42.53304 | -0.39776 | 7960 ft | 270 kts | 296° |
| 2026-04-27 18:15 | 42.54109 | -0.42070 | 7927 ft | 268 kts | 294° |
| 2026-04-27 18:15 | 42.54855 | -0.44389 | 7880 ft | 268 kts | 292° |
| 2026-04-27 18:16 | 42.55476 | -0.46756 | 7835 ft | 266 kts | 285° |
| 2026-04-27 18:16 | 42.55881 | -0.49193 | 7866 ft | 263 kts | 281° |
| 2026-04-27 18:16 | 42.56182 | -0.51639 | 7864 ft | 263 kts | 277° |
| 2026-04-27 18:16 | 42.56402 | -0.54102 | 7876 ft | 262 kts | 276° |
| 2026-04-27 18:17 | 42.56621 | -0.56568 | 7826 ft | 265 kts | 277° |
| 2026-04-27 18:17 | 42.56881 | -0.59028 | 7890 ft | 261 kts | 278° |
| 2026-04-27 18:17 | 42.57180 | -0.61424 | 7899 ft | 262 kts | 280° |
| 2026-04-27 18:17 | 42.57573 | -0.63852 | 7854 ft | 265 kts | 283° |
| 2026-04-27 18:18 | 42.58047 | -0.66277 | 7834 ft | 265 kts | 285° |
| 2026-04-27 18:18 | 42.58527 | -0.68670 | 7886 ft | 263 kts | 283° |
| 2026-04-27 18:18 | 42.58835 | -0.71121 | 7823 ft | 265 kts | 278° |
| 2026-04-27 18:18 | 42.59102 | -0.73590 | 7831 ft | 264 kts | 278° |
| 2026-04-27 18:19 | 42.59389 | -0.76035 | 7925 ft | 261 kts | 278° |
| 2026-04-27 18:19 | 42.59675 | -0.78458 | 7944 ft | 262 kts | 278° |
| 2026-04-27 18:19 | 42.59925 | -0.80924 | 7938 ft | 263 kts | 277° |
| 2026-04-27 18:19 | 42.60098 | -0.83370 | 8034 ft | 261 kts | 272° |
| 2026-04-27 18:20 | 42.60183 | -0.85820 | 7948 ft | 266 kts | 272° |
| 2026-04-27 18:20 | 42.60247 | -0.88336 | 7887 ft | 268 kts | 271° |
| 2026-04-27 18:20 | 42.60356 | -0.90863 | 7874 ft | 267 kts | 276° |
| 2026-04-27 18:20 | 42.60613 | -0.93343 | 7942 ft | 264 kts | 278° |
| 2026-04-27 18:21 | 42.60948 | -0.95693 | 8358 ft | 252 kts | 281° |
| 2026-04-27 18:21 | 42.61310 | -0.98060 | 8243 ft | 262 kts | 281° |
| 2026-04-27 18:21 | 42.61689 | -1.00513 | 8143 ft | 266 kts | 281° |
| 2026-04-27 18:21 | 42.62090 | -1.02959 | 8139 ft | 265 kts | 283° |
| 2026-04-27 18:22 | 42.62526 | -1.05390 | 8112 ft | 266 kts | 284° |
| 2026-04-27 18:22 | 42.62962 | -1.07850 | 7998 ft | 269 kts | 283° |
| 2026-04-27 18:22 | 42.63376 | -1.10291 | 7963 ft | 268 kts | 282° |
| 2026-04-27 18:22 | 42.63798 | -1.12735 | 8001 ft | 266 kts | 283° |
| 2026-04-27 18:23 | 42.64241 | -1.15184 | 7915 ft | 268 kts | 284° |
| 2026-04-27 18:23 | 42.64748 | -1.17626 | 7921 ft | 267 kts | 286° |
| 2026-04-27 18:23 | 42.65360 | -1.20006 | 7894 ft | 268 kts | 290° |
| 2026-04-27 18:23 | 42.66080 | -1.22336 | 7877 ft | 267 kts | 292° |
| 2026-04-27 18:24 | 42.66807 | -1.24641 | 7984 ft | 262 kts | 288° |
| 2026-04-27 18:24 | 42.67315 | -1.27003 | 7844 ft | 261 kts | 283° |
| 2026-04-27 18:24 | 42.67870 | -1.29400 | 7582 ft | 269 kts | 293° |
| 2026-04-27 18:24 | 42.69022 | -1.31357 | 7463 ft | 275 kts | 329° |
| 2026-04-27 18:25 | 42.70836 | -1.31953 | 7669 ft | 267 kts | 360° |
| 2026-04-27 18:25 | 42.72647 | -1.31997 | 8017 ft | 252 kts | 348° |
| 2026-04-27 18:25 | 42.74218 | -1.32893 | 8359 ft | 240 kts | 327° |
| 2026-04-27 18:25 | 42.75579 | -1.34158 | 8422 ft | 224 kts | 328° |
| 2026-04-27 18:26 | 42.76979 | -1.35285 | 8394 ft | 244 kts | 329° |
| 2026-04-27 18:26 | 42.78522 | -1.36412 | 8280 ft | 257 kts | 330° |
| 2026-04-27 18:26 | 42.80116 | -1.37555 | 8238 ft | 260 kts | 333° |
| 2026-04-27 18:26 | 42.81722 | -1.38658 | 8250 ft | 253 kts | 332° |
| 2026-04-27 18:27 | 42.83265 | -1.39712 | 8198 ft | 252 kts | 333° |
| 2026-04-27 18:27 | 42.84850 | -1.40754 | 8183 ft | 256 kts | 333° |
| 2026-04-27 18:27 | 42.86488 | -1.41789 | 8221 ft | 261 kts | 335° |
| 2026-04-27 18:27 | 42.88151 | -1.42799 | 8310 ft | 264 kts | 335° |
| 2026-04-27 18:28 | 42.89875 | -1.43702 | 8334 ft | 269 kts | 345° |
| 2026-04-27 18:28 | 42.91728 | -1.43702 | 8257 ft | 267 kts | 358° |
| 2026-04-27 18:28 | 42.93499 | -1.44362 | 8387 ft | 264 kts | 333° |
| 2026-04-27 18:28 | 42.94994 | -1.45810 | 8270 ft | 267 kts | 322° |
| 2026-04-27 18:29 | 42.96431 | -1.47330 | 8167 ft | 267 kts | 321° |
| 2026-04-27 18:29 | 42.97903 | -1.48862 | 8144 ft | 263 kts | 319° |
| 2026-04-27 18:29 | 42.99246 | -1.50572 | 8004 ft | 267 kts | 316° |
| 2026-04-27 18:29 | 43.00701 | -1.52200 | 7858 ft | 273 kts | 324° |
| 2026-04-27 18:30 | 43.02257 | -1.53640 | 7633 ft | 263 kts | 325° |
| 2026-04-27 18:30 | 43.03789 | -1.54981 | 7538 ft | 265 kts | 328° |
| 2026-04-27 18:30 | 43.05405 | -1.56219 | 7525 ft | 268 kts | 331° |
| 2026-04-27 18:30 | 43.07078 | -1.57395 | 7500 ft | 272 kts | 333° |
| 2026-04-27 18:31 | 43.08772 | -1.58534 | 7349 ft | 276 kts | 333° |
| 2026-04-27 18:31 | 43.10502 | -1.59709 | 7173 ft | 280 kts | 334° |
| 2026-04-27 18:31 | 43.12288 | -1.60761 | 7058 ft | 274 kts | 336° |
| 2026-04-27 18:31 | 43.13933 | -1.61811 | 6941 ft | 256 kts | 334° |
| 2026-04-27 18:32 | 43.15552 | -1.62760 | 6921 ft | 252 kts | 336° |
| 2026-04-27 18:32 | 43.17169 | -1.63716 | 6827 ft | 259 kts | 335° |
| 2026-04-27 18:32 | 43.18845 | -1.64724 | 6653 ft | 259 kts | 334° |
| 2026-04-27 18:32 | 43.20441 | -1.65850 | 6579 ft | 261 kts | 330° |
| 2026-04-27 18:33 | 43.22040 | -1.67034 | 6367 ft | 269 kts | 332° |
| 2026-04-27 18:33 | 43.23684 | -1.68263 | 6199 ft | 270 kts | 331° |
| 2026-04-27 18:33 | 43.25330 | -1.69514 | 6035 ft | 271 kts | 332° |
| 2026-04-27 18:33 | 43.26991 | -1.70766 | 5544 ft | 270 kts | 331° |
| 2026-04-27 18:34 | 43.28548 | -1.72052 | 4668 ft | 250 kts | 330° |
| 2026-04-27 18:34 | 43.29986 | -1.73268 | 3508 ft | 245 kts | 327° |
| 2026-04-27 18:34 | 43.31378 | -1.74586 | 2342 ft | 243 kts | 329° |
| 2026-04-27 18:34 | 43.32762 | -1.75813 | 1527 ft | 226 kts | 326° |
| 2026-04-27 18:35 | 43.33864 | -1.77141 | 1139 ft | 199 kts | 308° |
| 2026-04-27 18:35 | 43.34564 | -1.78676 | 750 ft | 182 kts | 302° |
| 2026-04-27 18:35 | 43.35325 | -1.79694 | 933 ft | 133 kts | 340° |
| 2026-04-27 18:35 | 43.36127 | -1.79592 | 838 ft | 115 kts | 30° |
| 2026-04-27 18:36 | 43.36756 | -1.78991 | 653 ft | 105 kts | 33° |
| 2026-04-27 18:36 | 43.37120 | -1.78327 | 744 ft | 87 kts | 96° |
| 2026-04-27 18:36 | 43.36595 | -1.77908 | 665 ft | 109 kts | 200° |
| 2026-04-27 18:36 | 43.36088 | -1.78580 | 164 ft | 98 kts | 214° |
| 2026-04-27 18:37 | 43.35593 | -1.79113 | 14 ft | 78 kts | 222° |
| 2026-04-27 18:37 | 43.35307 | -1.79438 | 15 ft | 24 kts | 220° |
| 2026-04-27 18:37 | 43.35167 | -1.79568 | 16 ft | 18 kts | 122° |
| 2026-04-27 18:37 | 43.35201 | -1.79530 | 17 ft | 7 kts | 33° |
| 2026-04-27 18:38 | 43.35253 | -1.79487 | 17 ft | 10 kts | 29° |
| 2026-04-27 18:38 | 43.35400 | -1.79334 | 16 ft | 58 kts | 36° |
| 2026-04-27 18:38 | 43.35895 | -1.78807 | 41 ft | 120 kts | 38° |
| 2026-04-27 18:38 | 43.36068 | -1.78041 | 782 ft | 113 kts | 165° |
| 2026-04-27 18:39 | 43.35328 | -1.78236 | 1312 ft | 112 kts | 225° |
| 2026-04-27 18:39 | 43.35378 | -1.79276 | 1110 ft | 136 kts | 324° |
| 2026-04-27 18:39 | 43.36206 | -1.79218 | 962 ft | 120 kts | 23° |
| 2026-04-27 18:39 | 43.36949 | -1.78929 | 860 ft | 105 kts | 7° |
| 2026-04-27 18:40 | 43.37693 | -1.78788 | 604 ft | 108 kts | 13° |
| 2026-04-27 18:40 | 43.38370 | -1.78595 | 580 ft | 99 kts | 19° |
| 2026-04-27 18:40 | 43.38955 | -1.78003 | 756 ft | 108 kts | 55° |
| 2026-04-27 18:40 | 43.38769 | -1.77198 | 892 ft | 117 kts | 143° |
| 2026-04-27 18:41 | 43.37924 | -1.76919 | 691 ft | 153 kts | 188° |
| 2026-04-27 18:41 | 43.37001 | -1.77634 | 424 ft | 144 kts | 230° |
| 2026-04-27 18:41 | 43.37352 | -1.78561 | 963 ft | 126 kts | 352° |
| 2026-04-27 18:41 | 43.37475 | -1.78006 | 833 ft | 167 kts | 207° |
| 2026-04-27 18:42 | 43.36333 | -1.78393 | 121 ft | 168 kts | 200° |
| 2026-04-27 18:42 | 43.35698 | -1.78987 | 39 ft | 179 kts | 220° |
| 2026-04-27 18:42 | 43.35173 | -1.79530 | 862 ft | 120 kts | 49° |
| 2026-04-27 18:42 | 43.36196 | -1.78268 | 125 ft | 220 kts | 50° |
| 2026-04-27 18:43 | 43.37085 | -1.77050 | 751 ft | 200 kts | 320° |
| 2026-04-27 18:43 | 43.36269 | -1.78417 | 119 ft | 246 kts | 216° |
| 2026-04-27 18:43 | 43.35320 | -1.79741 | 1525 ft | 75 kts | 53° |
| 2026-04-27 18:43 | 43.34833 | -1.80188 | 844 ft | 157 kts | 178° |
| 2026-04-27 18:44 | 43.34704 | -1.79283 | 587 ft | 203 kts | 1° |
| 2026-04-27 18:44 | 43.35921 | -1.78529 | 627 ft | 196 kts | 41° |
| 2026-04-27 18:44 | 43.36901 | -1.77641 | 687 ft | 191 kts | 347° |
| 2026-04-27 18:44 | 43.36286 | -1.78426 | 212 ft | 185 kts | 208° |
| 2026-04-27 18:45 | 43.36131 | -1.78533 | 67 ft | 34 kts | 202° |